Dades meteomassalio
Diari Summary for Febrer 15, 2017 Units:  Metric    English   Both
« Previous Day
Next Day »
Diari Semanal Mensual Anual Personalitzat
  Maxima: Minima: Mijana:
Temperatura: 16.7 °C 0.9 °C 8.2 °C
Rosada: 10.8 °C 0.1 °C 5.7 °C
Humitat: 94 % 65 % 85 %
Velocitat del vent: 13.0 km/h 0.0 km/h 1.6 km/h
Racha vent: 13.0 km/h - -
Vent:- - NE
Pressio: 1034.4 hPa 1029.7 hPa -
Pluja: 0.3 mm    
Historical Graphs
 
 
Tabular Data for Febrer 15, 2017
Time Temperature Dew Point Pressure Wind Wind Speed Wind Gust Humidity Rainfall Rate (Hourly) solar Conditions
00:02 4.7 °C 3.6 °C 1029.7 hPa Calm     92 % 0.0 mm 0.0 W/m2 RA
00:07 4.6 °C 3.4 °C 1030.0 hPa Calm     92 % 0.0 mm 0.0 W/m2 CLR
00:12 4.6 °C 3.4 °C 1030.0 hPa Calm     92 % 0.0 mm 0.0 W/m2 CLR
00:17 4.5 °C 3.3 °C 1030.0 hPa Calm     92 % 0.0 mm 0.0 W/m2 CLR
00:22 4.4 °C 3.2 °C 1030.0 hPa Calm     92 % 0.0 mm 0.0 W/m2 CLR
00:27 4.3 °C 3.1 °C 1030.0 hPa Calm     92 % 0.0 mm 0.0 W/m2 CLR
00:32 4.1 °C 2.9 °C 1030.4 hPa Calm     92 % 0.0 mm 0.0 W/m2 CLR
00:37 4.0 °C 2.8 °C 1030.4 hPa Calm     92 % 0.0 mm 0.0 W/m2 CLR
00:42 3.9 °C 2.8 °C 1030.4 hPa Calm     92 % 0.0 mm 0.0 W/m2 CLR
00:47 3.9 °C 2.7 °C 1030.4 hPa Calm     92 % 0.0 mm 0.0 W/m2 CLR
00:53 3.8 °C 2.8 °C 1030.4 hPa Calm     93 % 0.0 mm 0.0 W/m2 CLR
00:57 3.9 °C 2.9 °C 1030.4 hPa Calm     93 % 0.0 mm 0.0 W/m2 CLR
01:03 4.1 °C 3.1 °C 1030.4 hPa Calm     93 % 0.0 mm 0.0 W/m2 CLR
01:08 4.1 °C 3.1 °C 1030.7 hPa Calm     93 % 0.0 mm 0.0 W/m2 CLR
01:13 3.9 °C 2.9 °C 1030.7 hPa Calm     93 % 0.0 mm 0.0 W/m2 CLR
01:18 4.0 °C 2.9 °C 1030.7 hPa Calm     93 % 0.0 mm 0.0 W/m2 CLR
01:23 4.1 °C 3.0 °C 1030.7 hPa Calm     93 % 0.0 mm 0.0 W/m2 CLR
01:28 4.1 °C 3.1 °C 1031.0 hPa Calm     93 % 0.0 mm 0.0 W/m2 CLR
01:33 4.0 °C 2.9 °C 1031.0 hPa Calm     93 % 0.0 mm 0.0 W/m2 CLR
01:38 3.9 °C 2.8 °C 1031.0 hPa Calm     93 % 0.0 mm 0.0 W/m2 CLR
01:43 3.8 °C 2.8 °C 1031.0 hPa Calm     93 % 0.0 mm 0.0 W/m2 CLR
01:48 3.9 °C 2.9 °C 1031.0 hPa Calm     93 % 0.0 mm 0.0 W/m2 CLR
01:53 3.8 °C 2.8 °C 1031.0 hPa Calm     93 % 0.0 mm 0.0 W/m2 CLR
01:58 3.7 °C 2.7 °C 1031.0 hPa Calm     93 % 0.0 mm 0.0 W/m2 CLR
02:03 3.6 °C 2.6 °C 1031.0 hPa Calm     93 % 0.0 mm 0.0 W/m2 CLR
02:08 3.5 °C 2.5 °C 1031.0 hPa Calm     93 % 0.0 mm 0.0 W/m2 CLR
02:13 3.4 °C 2.4 °C 1031.4 hPa Calm     93 % 0.0 mm 0.0 W/m2 CLR
02:18 3.3 °C 2.3 °C 1031.4 hPa Calm     93 % 0.0 mm 0.0 W/m2 CLR
02:23 3.3 °C 2.3 °C 1031.4 hPa Calm     93 % 0.0 mm 0.0 W/m2 CLR
02:28 3.2 °C 2.2 °C 1031.4 hPa Calm     93 % 0.0 mm 0.0 W/m2 CLR
02:33 3.1 °C 2.1 °C 1031.4 hPa Calm     93 % 0.0 mm 0.0 W/m2 CLR
02:38 3.0 °C 2.0 °C 1031.4 hPa Calm     93 % 0.0 mm 0.0 W/m2 CLR
02:43 2.9 °C 1.9 °C 1031.4 hPa Calm     93 % 0.0 mm 0.0 W/m2 CLR
02:48 2.8 °C 1.8 °C 1031.4 hPa Calm     93 % 0.0 mm 0.0 W/m2 CLR
02:53 2.8 °C 1.8 °C 1031.4 hPa Calm     93 % 0.0 mm 0.0 W/m2 CLR
02:58 2.8 °C 1.8 °C 1031.4 hPa Calm     93 % 0.0 mm 0.0 W/m2 CLR
03:03 2.8 °C 1.8 °C 1031.4 hPa Calm     93 % 0.0 mm 0.0 W/m2 CLR
03:08 2.7 °C 1.7 °C 1031.4 hPa Calm     93 % 0.0 mm 0.0 W/m2 CLR
03:13 2.7 °C 1.7 °C 1031.4 hPa Calm     93 % 0.0 mm 0.0 W/m2 CLR
03:18 2.7 °C 1.7 °C 1031.7 hPa Calm     93 % 0.0 mm 0.0 W/m2 CLR
03:23 2.7 °C 1.7 °C 1031.7 hPa Calm     93 % 0.0 mm 0.0 W/m2 CLR
03:28 2.6 °C 1.6 °C 1031.7 hPa Calm     93 % 0.0 mm 0.0 W/m2 CLR
03:33 2.4 °C 1.4 °C 1031.7 hPa Calm     93 % 0.0 mm 0.0 W/m2 CLR
03:38 2.4 °C 1.4 °C 1031.7 hPa Calm     93 % 0.0 mm 0.0 W/m2 CLR
03:43 2.4 °C 1.4 °C 1031.7 hPa Calm     93 % 0.0 mm 0.0 W/m2 CLR
03:48 2.4 °C 1.4 °C 1031.7 hPa Calm     93 % 0.0 mm 0.0 W/m2 CLR
03:53 2.5 °C 1.5 °C 1031.7 hPa Calm     93 % 0.0 mm 0.0 W/m2 CLR
03:58 2.6 °C 1.6 °C 1031.7 hPa Calm     93 % 0.0 mm 0.0 W/m2 CLR
04:03 2.6 °C 1.7 °C 1031.7 hPa Calm     94 % 0.0 mm 0.0 W/m2 CLR
04:08 2.6 °C 1.7 °C 1031.7 hPa Calm     94 % 0.0 mm 0.0 W/m2 CLR
04:13 2.6 °C 1.7 °C 1031.7 hPa Calm     94 % 0.0 mm 0.0 W/m2 CLR
04:18 2.6 °C 1.6 °C 1031.7 hPa Calm     93 % 0.0 mm 0.0 W/m2 CLR
04:23 2.5 °C 1.5 °C 1031.7 hPa Calm     93 % 0.0 mm 0.0 W/m2 CLR
04:28 2.4 °C 1.4 °C 1031.7 hPa Calm     93 % 0.0 mm 0.0 W/m2 CLR
04:33 2.3 °C 1.3 °C 1031.7 hPa Calm     93 % 0.0 mm 0.0 W/m2 CLR
04:38 2.3 °C 1.3 °C 1031.7 hPa Calm     93 % 0.0 mm 0.0 W/m2 CLR
04:43 2.2 °C 1.2 °C 1031.7 hPa Calm     93 % 0.0 mm 0.0 W/m2 CLR
04:48 2.1 °C 1.1 °C 1031.7 hPa Calm     93 % 0.0 mm 0.0 W/m2 CLR
04:53 2.1 °C 1.1 °C 1031.7 hPa Calm     93 % 0.0 mm 0.0 W/m2 CLR
04:58 2.0 °C 1.0 °C 1031.7 hPa Calm     93 % 0.3 mm 0.0 W/m2 RA
05:03 1.9 °C 0.9 °C 1031.7 hPa Calm     93 % 0.3 mm 0.0 W/m2 CLR
05:08 1.9 °C 1.0 °C 1031.7 hPa Calm     94 % 0.3 mm 0.0 W/m2 CLR
05:13 1.9 °C 0.9 °C 1031.7 hPa Calm     93 % 0.3 mm 0.0 W/m2 CLR
05:18 1.8 °C 0.8 °C 1032.1 hPa Calm     93 % 0.3 mm 0.0 W/m2 CLR
05:23 1.7 °C 0.7 °C 1032.1 hPa Calm     93 % 0.3 mm 0.0 W/m2 CLR
05:28 1.7 °C 0.7 °C 1032.1 hPa Calm     93 % 0.3 mm 0.0 W/m2 CLR
05:33 1.7 °C 0.8 °C 1032.1 hPa Calm     94 % 0.3 mm 0.0 W/m2 CLR
05:38 1.7 °C 0.8 °C 1032.1 hPa Calm     94 % 0.3 mm 0.0 W/m2 CLR
05:43 1.6 °C 0.7 °C 1032.1 hPa Calm     94 % 0.3 mm 0.0 W/m2 CLR
05:48 1.5 °C 0.5 °C 1032.1 hPa Calm     93 % 0.3 mm 0.0 W/m2 CLR
05:53 1.5 °C 0.5 °C 1032.1 hPa Calm     93 % 0.3 mm 0.0 W/m2 CLR
05:58 1.4 °C 0.6 °C 1032.1 hPa Calm     94 % 0.0 mm 0.0 W/m2 CLR
06:03 1.4 °C 0.6 °C 1032.1 hPa Calm     94 % 0.0 mm 0.0 W/m2 CLR
06:08 1.5 °C 0.7 °C 1032.4 hPa Calm     94 % 0.0 mm 0.0 W/m2 CLR
06:13 1.4 °C 0.6 °C 1032.4 hPa Calm     94 % 0.0 mm 0.0 W/m2 CLR
06:18 1.4 °C 0.6 °C 1032.4 hPa Calm     94 % 0.0 mm 0.0 W/m2 CLR
06:23 1.3 °C 0.5 °C 1032.4 hPa Calm     94 % 0.0 mm 0.0 W/m2 CLR
06:28 1.3 °C 0.4 °C 1032.7 hPa Calm     94 % 0.0 mm 0.0 W/m2 CLR
06:33 1.2 °C 0.2 °C 1032.7 hPa Calm     93 % 0.0 mm 0.0 W/m2 CLR
06:38 1.2 °C 0.4 °C 1032.7 hPa Calm     94 % 0.0 mm 0.0 W/m2 CLR
06:43 1.3 °C 0.4 °C 1032.7 hPa Calm     94 % 0.0 mm 0.0 W/m2 CLR
06:48 1.3 °C 0.4 °C 1032.7 hPa Calm     94 % 0.0 mm 0.0 W/m2 CLR
06:53 1.3 °C 0.5 °C 1032.7 hPa Calm     94 % 0.0 mm 0.0 W/m2 CLR
06:58 1.3 °C 0.5 °C 1032.7 hPa Calm     94 % 0.0 mm 0.0 W/m2 CLR
07:03 1.3 °C 0.4 °C 1032.7 hPa Calm     94 % 0.0 mm 0.0 W/m2 CLR
07:08 1.2 °C 0.2 °C 1032.7 hPa Calm     93 % 0.0 mm 0.0 W/m2 CLR
07:13 1.1 °C 0.3 °C 1033.1 hPa Calm     94 % 0.0 mm 0.0 W/m2 CLR
07:19 1.2 °C 0.3 °C 1032.7 hPa Calm     94 % 0.0 mm 0.0 W/m2 CLR
07:24 1.2 °C 0.4 °C 1033.1 hPa Calm     94 % 0.0 mm 0.0 W/m2 CLR
07:29 1.3 °C 0.4 °C 1033.1 hPa Calm     94 % 0.0 mm 0.0 W/m2 CLR
07:34 1.3 °C 0.4 °C 1033.1 hPa Calm     94 % 0.0 mm 0.0 W/m2 CLR
07:39 1.2 °C 0.3 °C 1033.1 hPa Calm     94 % 0.0 mm 0.0 W/m2 CLR
07:44 1.2 °C 0.3 °C 1033.1 hPa Calm     94 % 0.0 mm 0.0 W/m2 OVC
07:49 1.2 °C 0.4 °C 1033.1 hPa Calm     94 % 0.0 mm 0.0 W/m2 OVC
07:54 1.1 °C 0.2 °C 1033.1 hPa Calm     94 % 0.0 mm 5.0 W/m2 OVC
07:59 1.0 °C 0.2 °C 1033.1 hPa Calm     94 % 0.0 mm 5.0 W/m2 OVC
08:04 1.0 °C 0.2 °C 1033.1 hPa Calm     94 % 0.0 mm 11.0 W/m2 BKN
08:09 0.9 °C 0.1 °C 1033.4 hPa Calm     94 % 0.0 mm 14.0 W/m2 BKN
08:14 1.1 °C 0.2 °C 1033.4 hPa Calm     94 % 0.0 mm 18.0 W/m2 BKN
08:19 1.3 °C 0.5 °C 1033.4 hPa Calm     94 % 0.0 mm 23.0 W/m2 BKN
08:24 1.4 °C 0.6 °C 1033.4 hPa Calm     94 % 0.0 mm 28.0 W/m2 BKN
08:29 1.6 °C 0.7 °C 1033.7 hPa Calm     94 % 0.0 mm 40.0 W/m2 BKN
08:34 1.8 °C 0.9 °C 1033.4 hPa Calm     94 % 0.0 mm 51.0 W/m2 SCT
08:39 2.0 °C 1.1 °C 1033.7 hPa Calm     94 % 0.0 mm 63.0 W/m2 SCT
08:44 2.1 °C 1.2 °C 1033.7 hPa Calm     94 % 0.0 mm 84.0 W/m2 FEW
08:49 2.1 °C 1.2 °C 1033.7 hPa Calm     94 % 0.0 mm 88.0 W/m2 FEW
08:54 2.3 °C 1.4 °C 1033.7 hPa Calm     94 % 0.0 mm 104.0 W/m2 CLR
08:59 2.7 °C 1.8 °C 1033.7 hPa Calm     94 % 0.0 mm 120.0 W/m2 CLR
09:04 2.9 °C 2.1 °C 1033.7 hPa Calm     94 % 0.0 mm 127.0 W/m2 CLR
09:09 3.1 °C 2.2 °C 1033.7 hPa Calm     94 % 0.0 mm 165.0 W/m2 CLR
09:14 3.2 °C 2.3 °C 1033.7 hPa Calm     94 % 0.0 mm 176.0 W/m2 CLR
09:19 3.5 °C 2.6 °C 1033.7 hPa Calm     94 % 0.0 mm 127.0 W/m2 CLR
09:24 3.8 °C 2.9 °C 1034.1 hPa Calm     94 % 0.0 mm 172.0 W/m2 CLR
09:29 4.1 °C 3.2 °C 1034.1 hPa Calm     94 % 0.0 mm 186.0 W/m2 CLR
09:34 4.4 °C 3.6 °C 1034.1 hPa Calm     94 % 0.0 mm 218.0 W/m2 CLR
09:39 4.8 °C 3.9 °C 1034.1 hPa Calm     94 % 0.0 mm 243.0 W/m2 CLR
09:44 5.1 °C 4.2 °C 1034.1 hPa Calm     94 % 0.0 mm 211.0 W/m2 CLR
09:49 5.6 °C 4.7 °C 1034.1 hPa Calm     94 % 0.0 mm 260.0 W/m2 CLR
09:54 5.9 °C 4.9 °C 1034.1 hPa Calm     93 % 0.0 mm 299.0 W/m2 CLR
09:59 6.1 °C 5.1 °C 1034.1 hPa Calm     93 % 0.0 mm 318.0 W/m2 CLR
10:04 6.6 °C 5.5 °C 1034.1 hPa Calm     93 % 0.0 mm 279.0 W/m2 CLR
10:09 6.9 °C 5.7 °C 1034.1 hPa Calm     92 % 0.0 mm 366.0 W/m2 CLR
10:14 7.2 °C 5.8 °C 1034.1 hPa Calm     91 % 0.0 mm 243.0 W/m2 CLR
10:19 7.4 °C 6.0 °C 1034.1 hPa Calm     91 % 0.0 mm 320.0 W/m2 CLR
10:24 7.8 °C 6.4 °C 1034.1 hPa Calm     91 % 0.0 mm 371.0 W/m2 CLR
10:29 8.1 °C 6.3 °C 1034.1 hPa Calm     89 % 0.0 mm 272.0 W/m2 CLR
10:34 8.3 °C 6.6 °C 1034.1 hPa Calm     89 % 0.0 mm 374.0 W/m2 CLR
10:39 8.7 °C 6.8 °C 1034.1 hPa Calm     88 % 0.0 mm 401.0 W/m2 CLR
10:44 9.1 °C 7.0 °C 1034.1 hPa Calm     87 % 0.0 mm 406.0 W/m2 CLR
10:49 9.6 °C 7.6 °C 1034.1 hPa Calm     87 % 0.0 mm 411.0 W/m2 CLR
10:54 10.1 °C 7.9 °C 1034.1 hPa Calm     86 % 0.0 mm 415.0 W/m2 CLR
10:59 10.4 °C 7.8 °C 1033.7 hPa Calm     84 % 0.0 mm 439.0 W/m2 CLR
11:04 10.7 °C 7.9 °C 1033.7 hPa Calm     83 % 0.0 mm 448.0 W/m2 CLR
11:09 10.9 °C 8.0 °C 1033.7 hPa Calm     82 % 0.0 mm 459.0 W/m2 CLR
11:14 11.3 °C 8.5 °C 1033.7 hPa Calm     83 % 0.0 mm 469.0 W/m2 CLR
11:19 11.4 °C 8.5 °C 1033.7 hPa Calm     82 % 0.0 mm 476.0 W/m2 CLR
11:24 11.8 °C 8.8 °C 1033.7 hPa Calm     82 % 0.0 mm 485.0 W/m2 CLR
11:29 12.0 °C 9.0 °C 1033.7 hPa Calm     82 % 0.0 mm 496.0 W/m2 CLR
11:34 12.2 °C 9.2 °C 1033.7 hPa Calm     82 % 0.0 mm 506.0 W/m2 CLR
11:39 12.3 °C 9.3 °C 1033.7 hPa Calm     82 % 0.0 mm 515.0 W/m2 CLR
11:44 12.6 °C 9.6 °C 1033.7 hPa Calm     82 % 0.0 mm 519.0 W/m2 CLR
11:49 12.7 °C 9.3 °C 1033.7 hPa Calm     80 % 0.0 mm 517.0 W/m2 CLR
11:54 12.8 °C 9.1 °C 1033.7 hPa Calm     78 % 0.0 mm 531.0 W/m2 CLR
11:59 13.2 °C 9.6 °C 1033.7 hPa Calm     79 % 0.0 mm 547.0 W/m2 CLR
12:04 13.4 °C 9.2 °C 1033.7 hPa Calm     76 % 0.0 mm 543.0 W/m2 CLR
12:09 13.4 °C 9.3 °C 1033.7 hPa ENE 3.7 km/h 3.7 km/h 76 % 0.0 mm 554.0 W/m2 CLR
12:14 13.5 °C 9.3 °C 1033.7 hPa ENE 5.6 km/h 5.6 km/h 76 % 0.0 mm 561.0 W/m2 CLR
12:19 13.5 °C 9.3 °C 1033.4 hPa ENE 5.6 km/h 5.6 km/h 76 % 0.0 mm 568.0 W/m2 CLR
12:24 13.5 °C 8.9 °C 1033.4 hPa Calm     74 % 0.0 mm 573.0 W/m2 CLR
12:29 13.6 °C 9.6 °C 1033.4 hPa ENE 5.6 km/h 5.6 km/h 77 % 0.0 mm 571.0 W/m2 CLR
12:34 13.8 °C 9.6 °C 1033.4 hPa Calm     76 % 0.0 mm 582.0 W/m2 CLR
12:39 13.9 °C 9.7 °C 1033.4 hPa NE 3.7 km/h 3.7 km/h 76 % 0.0 mm 592.0 W/m2 CLR
12:44 14.1 °C 9.7 °C 1033.4 hPa Calm     75 % 0.0 mm 603.0 W/m2 CLR
12:49 14.3 °C 10.1 °C 1033.1 hPa NE 5.6 km/h 5.6 km/h 76 % 0.0 mm 615.0 W/m2 CLR
12:54 14.4 °C 10.2 °C 1033.1 hPa ENE 9.3 km/h 9.3 km/h 76 % 0.0 mm 605.0 W/m2 CLR
12:59 14.3 °C 10.1 °C 1033.1 hPa NE 8.0 km/h 8.0 km/h 76 % 0.0 mm 599.0 W/m2 CLR
13:04 14.3 °C 10.2 °C 1033.1 hPa NE 9.3 km/h 9.3 km/h 76 % 0.0 mm 594.0 W/m2 CLR
13:09 14.3 °C 10.1 °C 1033.1 hPa North 5.6 km/h 5.6 km/h 76 % 0.0 mm 591.0 W/m2 CLR
13:14 14.3 °C 10.6 °C 1032.7 hPa NNE 11.1 km/h 11.1 km/h 78 % 0.0 mm 589.0 W/m2 CLR
13:19 14.2 °C 10.2 °C 1033.1 hPa NNE 9.3 km/h 9.3 km/h 77 % 0.0 mm 589.0 W/m2 CLR
13:24 14.2 °C 10.4 °C 1032.7 hPa North 9.3 km/h 9.3 km/h 78 % 0.0 mm 599.0 W/m2 CLR
13:29 14.2 °C 10.1 °C 1032.7 hPa NNE 13.0 km/h 13.0 km/h 76 % 0.0 mm 594.0 W/m2 CLR
13:34 14.2 °C 10.2 °C 1032.7 hPa North 5.6 km/h 5.6 km/h 77 % 0.0 mm 587.0 W/m2 CLR
13:39 14.4 °C 10.2 °C 1032.7 hPa NNE 9.3 km/h 9.3 km/h 76 % 0.0 mm 587.0 W/m2 CLR
13:44 14.6 °C 10.2 °C 1032.4 hPa ENE 7.4 km/h 7.4 km/h 75 % 0.0 mm 582.0 W/m2 CLR
13:49 14.8 °C 10.1 °C 1032.4 hPa Calm     73 % 0.0 mm 577.0 W/m2 CLR
13:54 14.9 °C 10.3 °C 1032.4 hPa NNE 7.4 km/h 7.4 km/h 74 % 0.0 mm 557.0 W/m2 CLR
13:59 15.0 °C 10.2 °C 1032.4 hPa NNE 3.7 km/h 3.7 km/h 73 % 0.0 mm 578.0 W/m2 CLR
14:04 15.1 °C 10.3 °C 1032.4 hPa ENE 5.6 km/h 5.6 km/h 73 % 0.0 mm 577.0 W/m2 CLR
14:09 15.1 °C 9.9 °C 1032.4 hPa North 3.7 km/h   71 % 0.0 mm 573.0 W/m2 CLR
14:14 15.3 °C 10.4 °C 1032.1 hPa ENE 11.1 km/h 11.1 km/h 73 % 0.0 mm 573.0 W/m2 CLR
14:19 15.3 °C 10.4 °C 1032.1 hPa ENE 11.1 km/h 11.1 km/h 73 % 0.0 mm 566.0 W/m2 CLR
14:24 15.3 °C 10.5 °C 1032.1 hPa Calm     73 % 0.0 mm 557.0 W/m2 CLR
14:29 15.5 °C 10.4 °C 1032.1 hPa NE 7.4 km/h 7.6 km/h 72 % 0.0 mm 555.0 W/m2 CLR
14:34 15.4 °C 10.0 °C 1032.1 hPa Calm     70 % 0.0 mm 548.0 W/m2 CLR
14:40 15.6 °C 10.1 °C 1032.1 hPa Calm     70 % 0.0 mm 548.0 W/m2 CLR
14:45 15.7 °C 10.2 °C 1032.1 hPa NE 3.2 km/h 3.2 km/h 70 % 0.0 mm 543.0 W/m2 CLR
14:50 15.8 °C 10.6 °C 1031.7 hPa NE 7.4 km/h 7.4 km/h 71 % 0.0 mm 519.0 W/m2 CLR
14:55 15.8 °C 10.4 °C 1031.7 hPa North 1.9 km/h 1.9 km/h 70 % 0.0 mm 506.0 W/m2 CLR
15:00 15.9 °C 10.7 °C 1032.1 hPa North 11.1 km/h 11.1 km/h 71 % 0.0 mm 475.0 W/m2 CLR
15:05 16.1 °C 10.8 °C 1032.1 hPa NE 9.3 km/h 9.3 km/h 71 % 0.0 mm 478.0 W/m2 CLR
15:10 16.1 °C 10.4 °C 1032.1 hPa ENE 7.4 km/h 7.4 km/h 69 % 0.0 mm 483.0 W/m2 CLR
15:15 16.1 °C 10.4 °C 1031.7 hPa Calm     69 % 0.0 mm 489.0 W/m2 CLR
15:20 16.3 °C 10.8 °C 1031.7 hPa NE 5.6 km/h 5.6 km/h 70 % 0.0 mm 478.0 W/m2 CLR
15:25 16.3 °C 9.9 °C 1031.7 hPa NNE 5.6 km/h 5.6 km/h 66 % 0.0 mm 461.0 W/m2 CLR
15:30 16.3 °C 10.1 °C 1031.7 hPa NNE 8.0 km/h 8.0 km/h 67 % 0.0 mm 450.0 W/m2 CLR
15:35 16.3 °C 10.3 °C 1031.7 hPa NE 5.6 km/h 5.6 km/h 68 % 0.0 mm 462.0 W/m2 CLR
15:40 16.4 °C 10.7 °C 1031.7 hPa Calm     69 % 0.0 mm 452.0 W/m2 CLR
15:45 16.5 °C 10.3 °C 1031.7 hPa ENE 6.4 km/h 6.4 km/h 67 % 0.0 mm 397.0 W/m2 CLR
15:50 16.6 °C 10.0 °C 1031.7 hPa ENE 6.4 km/h 6.4 km/h 65 % 0.0 mm 406.0 W/m2 CLR
15:55 16.5 °C 9.9 °C 1031.7 hPa ESE 3.7 km/h 3.7 km/h 65 % 0.0 mm 415.0 W/m2 CLR
16:00 16.4 °C 10.2 °C 1031.7 hPa NNE 7.4 km/h 7.4 km/h 67 % 0.0 mm 313.0 W/m2 CLR
16:05 16.3 °C 10.2 °C 1031.7 hPa Calm     67 % 0.0 mm 374.0 W/m2 CLR
16:10 16.3 °C 9.9 °C 1031.7 hPa Calm     66 % 0.0 mm 350.0 W/m2 CLR
16:15 16.5 °C 9.9 °C 1031.7 hPa NNE 5.6 km/h 5.6 km/h 65 % 0.0 mm 343.0 W/m2 CLR
16:20 16.7 °C 10.3 °C 1031.7 hPa NE 9.3 km/h 10.0 km/h 66 % 0.0 mm 323.0 W/m2 CLR
16:25 16.6 °C 10.2 °C 1031.7 hPa ENE 11.1 km/h 11.1 km/h 66 % 0.0 mm 325.0 W/m2 CLR
16:30 16.4 °C 10.1 °C 1031.7 hPa NE 13.0 km/h 13.0 km/h 66 % 0.0 mm 323.0 W/m2 CLR
16:35 16.2 °C 10.1 °C 1031.7 hPa NE 11.1 km/h 11.1 km/h 67 % 0.0 mm 113.0 W/m2 CLR
16:40 16.1 °C 10.0 °C 1031.7 hPa NE 11.1 km/h 11.1 km/h 67 % 0.0 mm 237.0 W/m2 CLR
16:45 16.1 °C 9.9 °C 1031.7 hPa Calm     67 % 0.0 mm 251.0 W/m2 CLR
16:50 16.1 °C 10.0 °C 1031.7 hPa NE 9.7 km/h 9.7 km/h 67 % 0.0 mm 234.0 W/m2 CLR
16:55 16.2 °C 10.1 °C 1031.7 hPa NE 9.7 km/h 9.7 km/h 67 % 0.0 mm 197.0 W/m2 CLR
17:00 16.1 °C 9.8 °C 1031.4 hPa NE 5.6 km/h 5.6 km/h 66 % 0.0 mm 214.0 W/m2 CLR
17:05 16.1 °C 9.9 °C 1031.4 hPa NNE 9.3 km/h 9.3 km/h 67 % 0.0 mm 207.0 W/m2 CLR
17:10 16.0 °C 10.1 °C 1031.7 hPa NNE 5.6 km/h 5.6 km/h 68 % 0.0 mm 195.0 W/m2 CLR
17:15 16.0 °C 10.1 °C 1031.4 hPa NE 9.3 km/h 9.3 km/h 68 % 0.0 mm 179.0 W/m2 CLR
17:20 15.9 °C 10.2 °C 1031.4 hPa NE 9.3 km/h 9.3 km/h 69 % 0.0 mm 172.0 W/m2 CLR
17:25 15.8 °C 9.9 °C 1031.4 hPa ENE 5.6 km/h 5.6 km/h 68 % 0.0 mm 137.0 W/m2 CLR
17:30 15.8 °C 9.9 °C 1031.4 hPa ENE 6.4 km/h 6.4 km/h 68 % 0.0 mm 128.0 W/m2 CLR
17:35 15.7 °C 10.0 °C 1031.4 hPa ENE 5.6 km/h 5.6 km/h 69 % 0.0 mm 113.0 W/m2 CLR
17:40 15.6 °C 9.9 °C 1031.4 hPa NE 7.4 km/h 7.4 km/h 69 % 0.0 mm 88.0 W/m2 CLR
17:45 15.4 °C 10.0 °C 1031.4 hPa NE 8.0 km/h 8.0 km/h 70 % 0.0 mm 70.0 W/m2 FEW
17:50 15.3 °C 9.8 °C 1031.7 hPa NE 12.9 km/h 12.9 km/h 70 % 0.0 mm 58.0 W/m2 SCT
17:55 15.1 °C 9.9 °C 1031.7 hPa NE 5.6 km/h 5.6 km/h 71 % 0.0 mm 49.0 W/m2 SCT
18:00 15.0 °C 9.8 °C 1031.7 hPa NE 5.6 km/h 5.6 km/h 71 % 0.0 mm 39.0 W/m2 BKN
18:05 14.8 °C 9.8 °C 1031.7 hPa NNE 6.4 km/h 6.4 km/h 72 % 0.0 mm 32.0 W/m2 BKN
18:10 14.7 °C 9.7 °C 1031.7 hPa NE 6.4 km/h 6.4 km/h 72 % 0.0 mm 25.0 W/m2 BKN
18:15 14.6 °C 9.6 °C 1031.7 hPa Calm     72 % 0.0 mm 18.0 W/m2 BKN
18:20 14.4 °C 9.7 °C 1031.7 hPa Calm     73 % 0.0 mm 12.0 W/m2 BKN
18:25 14.3 °C 9.6 °C 1032.1 hPa Calm     73 % 0.0 mm 7.0 W/m2 BKN
18:30 14.2 °C 9.6 °C 1032.1 hPa Calm     74 % 0.0 mm 0.0 W/m2 OVC
18:35 14.1 °C 9.5 °C 1032.1 hPa Calm     74 % 0.0 mm 0.0 W/m2 OVC
18:40 13.9 °C 9.6 °C 1032.1 hPa Calm     75 % 0.0 mm 0.0 W/m2 OVC
18:45 13.8 °C 9.5 °C 1032.1 hPa Calm     75 % 0.0 mm 0.0 W/m2 CLR
18:50 13.7 °C 9.5 °C 1032.1 hPa Calm     76 % 0.0 mm 0.0 W/m2 CLR
18:55 13.5 °C 9.3 °C 1032.1 hPa Calm     76 % 0.0 mm 0.0 W/m2 CLR
19:00 13.3 °C 9.1 °C 1032.1 hPa Calm     76 % 0.0 mm 0.0 W/m2 CLR
19:01 13.3 °C 9.1 °C 1032.1 hPa Calm     76 % 0.0 mm 0.0 W/m2 CLR
19:05 13.2 °C 8.9 °C 1032.4 hPa Calm     75 % 0.0 mm 0.0 W/m2 CLR
19:11 13.1 °C 9.2 °C 1032.4 hPa Calm     77 % 0.0 mm 0.0 W/m2 CLR
19:16 12.8 °C 8.9 °C 1032.4 hPa Calm     77 % 0.0 mm 0.0 W/m2 CLR
19:21 12.6 °C 8.8 °C 1032.4 hPa Calm     78 % 0.0 mm 0.0 W/m2 CLR
19:26 12.3 °C 8.6 °C 1032.4 hPa Calm     78 % 0.0 mm 0.0 W/m2 CLR
19:31 12.1 °C 8.6 °C 1032.4 hPa Calm     79 % 0.0 mm 0.0 W/m2 CLR
19:36 11.9 °C 8.6 °C 1032.4 hPa Calm     80 % 0.0 mm 0.0 W/m2 CLR
19:41 11.8 °C 8.6 °C 1032.7 hPa Calm     81 % 0.0 mm 0.0 W/m2 CLR
19:46 11.4 °C 8.1 °C 1032.7 hPa Calm     80 % 0.0 mm 0.0 W/m2 CLR
19:51 10.9 °C 8.0 °C 1032.7 hPa Calm     82 % 0.0 mm 0.0 W/m2 CLR
19:56 10.4 °C 7.8 °C 1032.7 hPa Calm     84 % 0.0 mm 0.0 W/m2 CLR
20:01 10.3 °C 7.9 °C 1032.7 hPa Calm     85 % 0.0 mm 0.0 W/m2 CLR
20:06 10.3 °C 8.1 °C 1032.7 hPa Calm     86 % 0.0 mm 0.0 W/m2 CLR
20:11 10.3 °C 8.1 °C 1033.1 hPa Calm     86 % 0.0 mm 0.0 W/m2 CLR
20:16 10.3 °C 7.9 °C 1033.1 hPa Calm     85 % 0.0 mm 0.0 W/m2 CLR
20:21 10.0 °C 7.6 °C 1033.1 hPa Calm     85 % 0.0 mm 0.0 W/m2 CLR
20:26 9.8 °C 7.6 °C 1033.1 hPa Calm     86 % 0.0 mm 0.0 W/m2 CLR
20:31 9.8 °C 7.7 °C 1033.1 hPa Calm     87 % 0.0 mm 0.0 W/m2 CLR
20:36 9.7 °C 7.6 °C 1033.1 hPa Calm     87 % 0.0 mm 0.0 W/m2 CLR
20:41 9.5 °C 7.4 °C 1033.1 hPa Calm     87 % 0.0 mm 0.0 W/m2 CLR
20:46 9.4 °C 7.4 °C 1033.4 hPa Calm     87 % 0.0 mm 0.0 W/m2 CLR
20:51 9.3 °C 7.3 °C 1033.4 hPa Calm     87 % 0.0 mm 0.0 W/m2 CLR
20:56 9.3 °C 7.4 °C 1033.4 hPa Calm     88 % 0.0 mm 0.0 W/m2 CLR
21:01 9.3 °C 7.2 °C 1033.4 hPa Calm     87 % 0.0 mm 0.0 W/m2 CLR
21:06 9.1 °C 7.2 °C 1033.4 hPa Calm     88 % 0.0 mm 0.0 W/m2 CLR
21:11 9.0 °C 7.1 °C 1033.4 hPa Calm     88 % 0.0 mm 0.0 W/m2 CLR
21:16 8.9 °C 7.1 °C 1033.4 hPa Calm     88 % 0.0 mm 0.0 W/m2 CLR
21:21 8.8 °C 6.9 °C 1033.7 hPa Calm     88 % 0.0 mm 0.0 W/m2 CLR
21:26 8.7 °C 6.8 °C 1033.7 hPa Calm     88 % 0.0 mm 0.0 W/m2 CLR
21:31 8.4 °C 6.6 °C 1033.7 hPa Calm     88 % 0.0 mm 0.0 W/m2 CLR
21:36 8.3 °C 6.4 °C 1033.7 hPa Calm     88 % 0.0 mm 0.0 W/m2 CLR
21:41 8.1 °C 6.2 °C 1033.7 hPa Calm     88 % 0.0 mm 0.0 W/m2 CLR
21:46 7.9 °C 6.0 °C 1033.7 hPa Calm     88 % 0.0 mm 0.0 W/m2 CLR
21:51 7.8 °C 6.1 °C 1033.7 hPa Calm     89 % 0.0 mm 0.0 W/m2 CLR
21:56 7.7 °C 5.9 °C 1033.7 hPa Calm     89 % 0.0 mm 0.0 W/m2 CLR
22:01 7.6 °C 6.0 °C 1034.1 hPa Calm     90 % 0.0 mm 0.0 W/m2 CLR
22:06 7.4 °C 5.9 °C 1034.1 hPa Calm     90 % 0.0 mm 0.0 W/m2 CLR
22:11 7.3 °C 5.8 °C 1034.1 hPa Calm     90 % 0.0 mm 0.0 W/m2 CLR
22:16 7.2 °C 5.7 °C 1034.1 hPa Calm     90 % 0.0 mm 0.0 W/m2 CLR
22:21 7.1 °C 5.6 °C 1034.1 hPa Calm     90 % 0.0 mm 0.0 W/m2 CLR
22:26 7.0 °C 5.4 °C 1034.1 hPa Calm     90 % 0.0 mm 0.0 W/m2 CLR
22:31 6.9 °C 5.4 °C 1034.1 hPa Calm     90 % 0.0 mm 0.0 W/m2 CLR
22:36 6.7 °C 5.2 °C 1034.1 hPa Calm     90 % 0.0 mm 0.0 W/m2 CLR
22:41 6.6 °C 5.2 °C 1034.1 hPa Calm     91 % 0.0 mm 0.0 W/m2 CLR
22:46 6.5 °C 5.1 °C 1034.4 hPa Calm     91 % 0.0 mm 0.0 W/m2 CLR
22:51 6.4 °C 5.0 °C 1034.4 hPa Calm     91 % 0.0 mm 0.0 W/m2 CLR
22:56 6.3 °C 4.9 °C 1034.4 hPa Calm     91 % 0.0 mm 0.0 W/m2 CLR
23:01 6.3 °C 4.9 °C 1034.4 hPa Calm     91 % 0.0 mm 0.0 W/m2 CLR
23:06 6.3 °C 4.9 °C 1034.4 hPa Calm     91 % 0.0 mm 0.0 W/m2 CLR
23:11 6.3 °C 5.1 °C 1034.4 hPa Calm     92 % 0.0 mm 0.0 W/m2 CLR
23:16 6.4 °C 5.2 °C 1034.4 hPa Calm     92 % 0.0 mm 0.0 W/m2 CLR
23:21 6.4 °C 5.2 °C 1034.4 hPa Calm     92 % 0.0 mm 0.0 W/m2 CLR
23:26 6.2 °C 4.9 °C 1034.4 hPa Calm     91 % 0.0 mm 0.0 W/m2 CLR
23:31 6.3 °C 5.1 °C 1034.4 hPa Calm     92 % 0.0 mm 0.0 W/m2 CLR
23:36 6.3 °C 5.1 °C 1034.4 hPa Calm     92 % 0.0 mm 0.0 W/m2 CLR
23:41 6.2 °C 5.0 °C 1034.4 hPa Calm     92 % 0.0 mm 0.0 W/m2 CLR
23:46 6.2 °C 5.0 °C 1034.4 hPa Calm     92 % 0.0 mm 0.0 W/m2 CLR
23:51 6.2 °C 5.0 °C 1034.4 hPa Calm     92 % 0.0 mm 0.0 W/m2 CLR
23:56 6.1 °C 4.8 °C 1034.4 hPa Calm     92 % 0.0 mm 0.0 W/m2 CLR
Lo Temps de Massalio
Compliments of Weather Underground - 1.25 mb